createdAt,value
2022-08-28T00:01:42.540Z,19.96
2022-08-28T00:02:57.886Z,20.23
2022-08-28T00:04:21.754Z,19.91
2022-08-28T00:05:32.358Z,20.03
2022-08-28T00:06:40.866Z,20.47
2022-08-28T00:07:53.210Z,20.59
2022-08-28T00:09:04.331Z,20.31
2022-08-28T00:10:20.576Z,19.65
2022-08-28T00:11:31.909Z,19.56
2022-08-28T00:12:42.321Z,19.85
2022-08-28T00:13:50.487Z,20.42
2022-08-28T00:14:58.480Z,20.76
2022-08-28T00:16:08.303Z,21.07
2022-08-28T00:17:15.811Z,21.49
2022-08-28T00:18:23.601Z,21.45
2022-08-28T00:19:34.448Z,21.25
2022-08-28T00:20:46.072Z,20.96
2022-08-28T00:21:57.314Z,21.14
2022-08-28T00:23:07.312Z,20.97
2022-08-28T00:24:22.381Z,20.78
2022-08-28T00:27:59.306Z,21.24
2022-08-28T00:30:44.010Z,22.07
2022-08-28T00:31:53.023Z,22.36
2022-08-28T00:33:03.035Z,22.49
2022-08-28T00:34:11.164Z,23.03
2022-08-28T00:35:21.214Z,22.89
2022-08-28T00:36:31.422Z,22.73
2022-08-28T00:37:41.734Z,22.86
2022-08-28T00:38:52.448Z,22.91
2022-08-28T00:40:00.450Z,22.98
2022-08-28T00:41:09.647Z,22.99
2022-08-28T00:42:22.383Z,22.83
2022-08-28T00:43:41.444Z,22.73
2022-08-28T00:44:51.785Z,22.71
2022-08-28T00:46:02.599Z,22.78
2022-08-28T00:47:12.458Z,22.66
2022-08-28T00:48:22.581Z,22.66
2022-08-28T00:49:34.770Z,22.49
2022-08-28T00:51:05.804Z,22.46
2022-08-28T00:52:16.828Z,22.83
2022-08-28T00:53:29.055Z,23.02
2022-08-28T00:54:58.422Z,23.30
2022-08-28T00:56:13.007Z,23.30
2022-08-28T00:57:43.425Z,23.34
2022-08-28T00:58:51.024Z,23.24
2022-08-28T00:59:58.134Z,23.23
2022-08-28T01:01:06.044Z,23.22
2022-08-28T01:02:16.113Z,23.48
2022-08-28T01:03:26.537Z,23.52
2022-08-28T01:04:35.479Z,23.57
2022-08-28T01:05:49.689Z,23.74
2022-08-28T01:06:58.935Z,23.72
2022-08-28T01:08:07.228Z,23.87
2022-08-28T01:14:39.268Z,24.50
2022-08-28T01:15:50.349Z,24.15
2022-08-28T01:16:57.912Z,23.86
2022-08-28T01:18:09.805Z,23.68
2022-08-28T01:19:20.740Z,23.65
2022-08-28T01:20:31.696Z,23.70
2022-08-28T01:21:58.611Z,23.92
2022-08-28T01:23:25.858Z,24.06
2022-08-28T01:24:34.268Z,24.19
2022-08-28T01:25:44.327Z,24.28
2022-08-28T01:26:51.583Z,24.51
2022-08-28T01:28:00.801Z,24.75
2022-08-28T01:29:10.492Z,25.18
2022-08-28T01:30:22.769Z,25.45
2022-08-28T01:31:33.665Z,25.34
2022-08-28T01:32:43.227Z,25.31
2022-08-28T01:33:50.691Z,25.13
2022-08-28T01:34:57.977Z,25.14
2022-08-28T01:36:09.388Z,25.24
2022-08-28T01:37:17.633Z,25.28
2022-08-28T01:38:26.991Z,25.32
2022-08-28T01:39:35.255Z,25.54
2022-08-28T01:40:48.690Z,26.00
2022-08-28T01:41:56.946Z,26.05
2022-08-28T01:43:12.740Z,26.28
2022-08-28T01:44:25.269Z,26.68
2022-08-28T01:45:34.071Z,26.73
2022-08-28T01:46:44.038Z,26.53
2022-08-28T01:47:52.738Z,26.37
2022-08-28T01:49:01.768Z,25.92
2022-08-28T01:50:16.865Z,25.76
2022-08-28T01:51:28.351Z,25.93
2022-08-28T01:52:55.372Z,25.65
2022-08-28T01:54:04.157Z,25.67
2022-08-28T01:55:13.917Z,25.51
2022-08-28T01:56:22.639Z,24.98
2022-08-28T01:57:35.564Z,25.18
2022-08-28T01:58:54.865Z,25.28
2022-08-28T02:00:13.568Z,25.22
2022-08-28T02:01:27.039Z,25.42
2022-08-28T02:04:09.021Z,26.36
2022-08-28T02:05:21.681Z,26.64
2022-08-28T02:06:30.398Z,26.91
2022-08-28T02:07:39.014Z,27.33
2022-08-28T02:08:48.096Z,27.65
2022-08-28T02:09:58.157Z,28.01
2022-08-28T02:11:09.417Z,28.61
2022-08-28T02:12:17.710Z,29.18
2022-08-28T02:16:18.303Z,30.13
2022-08-28T02:18:28.357Z,30.95
2022-08-28T02:29:33.326Z,36.21
2022-08-28T02:30:54.167Z,36.71
2022-08-28T02:32:46.986Z,36.92
2022-08-28T02:34:17.899Z,36.93
2022-08-28T02:35:28.004Z,37.12
2022-08-28T02:45:07.329Z,40.38
2022-08-28T02:46:17.979Z,40.76
2022-08-28T02:47:31.704Z,40.88
2022-08-28T02:48:43.460Z,41.08
2022-08-28T02:49:51.987Z,41.27
2022-08-28T02:51:05.121Z,41.76
2022-08-28T02:52:14.680Z,41.56
2022-08-28T02:53:25.378Z,41.95
2022-08-28T02:54:33.977Z,42.11
2022-08-28T02:58:05.353Z,42.37
2022-08-28T02:59:49.937Z,42.62
2022-08-28T03:01:22.875Z,42.78
2022-08-28T03:02:53.395Z,42.82
2022-08-28T03:04:17.792Z,42.92
2022-08-28T03:05:33.602Z,43.22
2022-08-28T03:07:06.343Z,43.45
2022-08-28T03:20:49.033Z,46.53
2022-08-28T03:21:58.460Z,46.45
2022-08-28T03:32:10.218Z,49.97
2022-08-28T03:37:04.786Z,51.53
2022-08-28T03:38:49.852Z,51.82
2022-08-28T03:40:09.053Z,51.92
2022-08-28T03:41:19.942Z,52.09
2022-08-28T03:42:57.684Z,52.39
2022-08-28T03:49:21.140Z,53.47
2022-08-28T03:50:38.531Z,53.77
2022-08-28T03:51:46.632Z,53.84
2022-08-28T03:52:56.325Z,53.67
2022-08-28T03:54:51.405Z,53.79
2022-08-28T03:56:00.462Z,54.33
2022-08-28T03:57:10.853Z,54.29
2022-08-28T03:58:19.321Z,54.38
2022-08-28T03:59:31.690Z,54.32
2022-08-28T04:00:43.573Z,54.43
2022-08-28T04:01:56.369Z,54.38
2022-08-28T04:04:47.763Z,54.32
2022-08-28T04:06:36.477Z,54.34
2022-08-28T04:07:52.065Z,54.54
2022-08-28T04:09:02.077Z,54.60
2022-08-28T04:10:11.964Z,54.69
2022-08-28T04:11:21.357Z,54.83
2022-08-28T04:12:30.814Z,55.07
2022-08-28T04:13:47.393Z,55.37
2022-08-28T04:14:56.340Z,55.36
2022-08-28T04:16:11.999Z,55.45
2022-08-28T04:17:19.808Z,55.59
2022-08-28T04:18:29.147Z,55.60
2022-08-28T04:19:36.338Z,56.13
2022-08-28T04:20:45.474Z,56.15
2022-08-28T04:21:54.907Z,55.74
2022-08-28T04:23:05.081Z,56.01
2022-08-28T04:24:14.444Z,56.19
2022-08-28T04:25:23.535Z,56.16
2022-08-28T04:26:38.167Z,57.07
2022-08-28T04:27:46.642Z,57.23
2022-08-28T04:28:55.207Z,57.05
2022-08-28T04:30:04.133Z,56.74
2022-08-28T04:31:15.601Z,57.58
2022-08-28T04:32:26.588Z,57.17
2022-08-28T04:33:37.322Z,57.29
2022-08-28T04:34:45.085Z,57.52
2022-08-28T04:35:53.416Z,57.83
2022-08-28T04:37:01.506Z,57.84
2022-08-28T04:38:09.796Z,57.70
2022-08-28T04:39:19.262Z,57.81
2022-08-28T04:40:27.632Z,57.73
2022-08-28T04:41:38.116Z,57.71
2022-08-28T04:42:47.568Z,58.17
2022-08-28T04:43:58.925Z,57.99
2022-08-28T04:45:09.931Z,58.06
2022-08-28T04:46:18.066Z,58.32
2022-08-28T04:48:56.596Z,58.75
2022-08-28T04:51:02.431Z,58.84
2022-08-28T04:52:10.498Z,58.62
2022-08-28T04:53:21.875Z,58.88
2022-08-28T04:54:31.623Z,59.07
2022-08-28T04:56:01.861Z,59.12
2022-08-28T04:57:14.410Z,59.56
2022-08-28T04:58:29.528Z,59.43
2022-08-28T04:59:40.469Z,59.57
2022-08-28T05:00:48.477Z,59.22
2022-08-28T05:01:56.076Z,59.24
2022-08-28T05:03:06.535Z,59.67
2022-08-28T05:04:14.078Z,59.98
2022-08-28T05:05:21.533Z,59.99
2022-08-28T05:06:34.420Z,60.27
2022-08-28T05:07:43.097Z,60.50
2022-08-28T05:11:35.095Z,60.90
2022-08-28T05:15:24.088Z,61.49
2022-08-28T05:24:34.731Z,61.87
2022-08-28T05:25:47.443Z,62.32
2022-08-28T05:26:55.784Z,62.64
2022-08-28T05:28:12.968Z,62.91
2022-08-28T05:29:21.581Z,62.91
2022-08-28T05:30:33.953Z,62.80
2022-08-28T05:31:43.483Z,62.86
2022-08-28T05:32:55.893Z,62.95
2022-08-28T05:34:07.026Z,63.27
2022-08-28T05:35:17.865Z,63.28
2022-08-28T05:36:32.836Z,63.61
2022-08-28T05:37:45.571Z,64.08
2022-08-28T05:38:57.583Z,64.14
2022-08-28T05:40:04.989Z,63.93
2022-08-28T05:41:13.890Z,64.23
2022-08-28T05:42:23.100Z,64.60
2022-08-28T05:43:38.536Z,64.79
2022-08-28T05:44:50.051Z,64.53
2022-08-28T05:46:12.494Z,64.54
2022-08-28T05:47:23.632Z,64.55
2022-08-28T05:48:33.014Z,64.26
2022-08-28T05:49:45.056Z,64.20
2022-08-28T05:50:52.628Z,64.34
2022-08-28T05:51:59.913Z,64.45
2022-08-28T05:53:08.271Z,64.33
2022-08-28T05:54:16.825Z,64.68
2022-08-28T05:55:27.082Z,64.97
2022-08-28T05:56:37.243Z,65.14
2022-08-28T05:57:44.538Z,65.12
2022-08-28T05:58:52.983Z,64.94
2022-08-28T06:00:00.087Z,64.81
2022-08-28T06:01:12.031Z,65.42
2022-08-28T06:02:19.474Z,65.28
2022-08-28T06:03:30.272Z,65.30
2022-08-28T06:04:41.944Z,65.59
2022-08-28T06:05:57.923Z,65.59
2022-08-28T06:07:06.967Z,65.70
2022-08-28T06:08:16.172Z,65.63
2022-08-28T06:09:29.604Z,65.23
2022-08-28T06:10:38.694Z,65.29
2022-08-28T06:11:50.957Z,65.57
2022-08-28T06:13:03.842Z,65.39
2022-08-28T06:14:15.727Z,65.31
2022-08-28T06:15:28.061Z,65.44
2022-08-28T06:16:44.880Z,65.47
2022-08-28T06:17:55.218Z,65.86
2022-08-28T06:19:03.877Z,66.01
2022-08-28T06:20:13.599Z,65.77
2022-08-28T06:21:23.301Z,65.85
2022-08-28T06:22:31.424Z,65.83
2022-08-28T06:23:42.879Z,65.54
2022-08-28T06:24:51.734Z,65.36
2022-08-28T06:26:00.601Z,65.22
2022-08-28T06:27:09.108Z,65.58
2022-08-28T06:28:30.492Z,65.12
2022-08-28T06:29:42.130Z,65.27
2022-08-28T06:31:17.831Z,65.89
2022-08-28T06:32:21.670Z,66.33
2022-08-28T06:33:32.792Z,66.66
2022-08-28T06:34:41.911Z,66.77
2022-08-28T06:35:52.067Z,66.66
2022-08-28T06:37:02.279Z,66.74
2022-08-28T06:38:10.489Z,66.50
2022-08-28T06:39:21.925Z,66.50
2022-08-28T06:40:29.793Z,66.80
2022-08-28T06:41:46.163Z,67.14
2022-08-28T06:43:00.550Z,67.11
2022-08-28T06:44:07.587Z,67.40
2022-08-28T06:45:18.173Z,67.08
2022-08-28T06:46:28.220Z,67.55
2022-08-28T06:47:36.850Z,67.75
2022-08-28T06:48:45.196Z,67.66
2022-08-28T06:49:56.213Z,67.58
2022-08-28T06:51:11.058Z,67.58
2022-08-28T06:52:22.016Z,67.49
2022-08-28T06:53:33.307Z,67.78
2022-08-28T06:54:54.473Z,67.85
2022-08-28T06:56:11.020Z,67.97
2022-08-28T06:57:25.087Z,68.21
2022-08-28T06:58:34.030Z,68.34
2022-08-28T06:59:42.197Z,68.38
2022-08-28T07:01:00.914Z,68.68
2022-08-28T07:02:13.609Z,68.74
2022-08-28T07:03:22.837Z,68.97
2022-08-28T07:04:30.894Z,68.41
2022-08-28T07:05:39.095Z,68.45
2022-08-28T07:06:53.701Z,68.09
2022-08-28T07:08:04.643Z,68.37
2022-08-28T07:09:14.903Z,68.46
2022-08-28T07:10:22.937Z,68.30
2022-08-28T07:11:32.295Z,68.97
2022-08-28T07:12:42.226Z,69.01
2022-08-28T07:13:52.170Z,68.74
2022-08-28T07:15:01.951Z,68.77
2022-08-28T07:16:11.448Z,68.67
2022-08-28T07:17:18.851Z,68.96
2022-08-28T07:18:30.435Z,69.06
2022-08-28T07:19:39.710Z,68.80
2022-08-28T07:20:57.814Z,68.87
2022-08-28T07:22:07.074Z,69.10
2022-08-28T07:23:13.728Z,69.22
2022-08-28T07:24:22.101Z,69.63
2022-08-28T07:25:30.738Z,69.82
2022-08-28T07:26:38.193Z,69.93
2022-08-28T07:27:46.299Z,70.05
2022-08-28T07:29:09.371Z,70.01
2022-08-28T07:30:20.542Z,69.78
2022-08-28T07:31:29.201Z,69.80
2022-08-28T07:32:37.558Z,70.02
2022-08-28T07:33:44.709Z,70.08
2022-08-28T07:34:57.510Z,70.10
2022-08-28T07:36:15.785Z,70.07
2022-08-28T07:37:30.692Z,70.06
2022-08-28T07:38:37.956Z,70.08
2022-08-28T07:39:47.362Z,70.34
2022-08-28T07:40:58.761Z,70.76
2022-08-28T07:42:08.971Z,70.83
2022-08-28T07:43:36.346Z,70.50
2022-08-28T07:44:53.191Z,70.37
2022-08-28T07:46:08.215Z,70.53
2022-08-28T07:47:16.797Z,70.62
2022-08-28T07:48:25.254Z,70.96
2022-08-28T07:49:35.704Z,71.37
2022-08-28T07:50:44.172Z,71.62
2022-08-28T07:51:56.557Z,71.59
2022-08-28T07:53:05.783Z,71.48
2022-08-28T07:54:17.640Z,71.34
2022-08-28T07:55:31.657Z,71.51
2022-08-28T07:56:42.389Z,71.74
2022-08-28T07:57:50.584Z,71.70
2022-08-28T07:59:02.887Z,72.11
2022-08-28T08:00:11.731Z,72.34
2022-08-28T08:01:20.304Z,72.22
2022-08-28T08:02:29.381Z,72.41
2022-08-28T08:03:38.399Z,72.72
2022-08-28T08:04:47.155Z,72.78
2022-08-28T08:06:06.192Z,73.18
2022-08-28T08:07:16.782Z,72.80
2022-08-28T08:08:26.610Z,72.67
2022-08-28T08:09:39.982Z,72.90
2022-08-28T08:10:58.747Z,73.01
2022-08-28T08:12:06.794Z,73.09
2022-08-28T08:13:14.499Z,73.63
2022-08-28T08:14:21.999Z,73.98
2022-08-28T08:15:31.462Z,73.92
2022-08-28T08:16:40.409Z,74.01
2022-08-28T08:17:51.258Z,73.86
2022-08-28T08:18:59.549Z,73.50
2022-08-28T08:20:08.491Z,73.51
2022-08-28T08:21:15.983Z,73.92
2022-08-28T08:22:22.904Z,74.25
2022-08-28T08:23:32.322Z,74.32
2022-08-28T08:24:39.791Z,74.90
2022-08-28T08:25:59.564Z,74.61
2022-08-28T08:27:08.279Z,74.58
2022-08-28T08:28:17.329Z,74.78
2022-08-28T08:29:28.925Z,74.45
2022-08-28T08:30:39.575Z,74.13
2022-08-28T08:32:00.245Z,74.17
2022-08-28T08:33:10.830Z,73.97
2022-08-28T08:34:19.822Z,74.03
2022-08-28T08:35:30.004Z,74.26
2022-08-28T08:36:40.628Z,74.78
2022-08-28T08:37:50.670Z,75.03
2022-08-28T08:38:59.938Z,74.79
2022-08-28T08:40:10.877Z,74.73
2022-08-28T08:41:51.447Z,74.66
2022-08-28T08:42:59.305Z,74.72
2022-08-28T08:44:09.787Z,74.87
2022-08-28T08:45:19.410Z,74.78
2022-08-28T08:46:35.275Z,74.90
2022-08-28T08:47:53.592Z,75.03
2022-08-28T08:49:07.579Z,74.95
2022-08-28T08:50:29.142Z,75.29
2022-08-28T08:51:44.953Z,75.63
2022-08-28T08:53:21.824Z,75.41
2022-08-28T08:54:31.695Z,75.66
2022-08-28T08:55:46.816Z,75.77
2022-08-28T08:56:56.904Z,75.68
2022-08-28T08:58:37.313Z,75.41
2022-08-28T08:59:46.807Z,75.13
2022-08-28T09:01:33.127Z,75.32
2022-08-28T09:02:50.853Z,75.87
2022-08-28T09:04:24.031Z,76.28
2022-08-28T09:05:52.532Z,76.35
2022-08-28T09:07:09.915Z,76.67
2022-08-28T09:08:28.348Z,76.96
2022-08-28T09:09:49.517Z,76.88
2022-08-28T09:11:03.882Z,76.68
2022-08-28T09:12:16.076Z,77.40
2022-08-28T09:13:43.178Z,76.78
2022-08-28T09:15:17.203Z,77.62
2022-08-28T09:16:37.437Z,77.31
2022-08-28T09:17:51.867Z,77.43
2022-08-28T09:19:01.735Z,77.43
2022-08-28T09:20:11.809Z,77.54
2022-08-28T09:21:29.474Z,77.47
2022-08-28T09:22:39.674Z,77.85
2022-08-28T09:23:50.615Z,78.20
2022-08-28T09:25:02.243Z,77.66
2022-08-28T09:26:15.633Z,77.21
2022-08-28T09:27:31.944Z,77.32
2022-08-28T09:28:42.139Z,77.11
2022-08-28T09:30:10.727Z,76.88
2022-08-28T09:31:23.912Z,77.77
2022-08-28T09:32:46.069Z,77.89
2022-08-28T09:33:58.149Z,78.07
2022-08-28T09:35:27.601Z,78.28
2022-08-28T09:36:44.052Z,78.20
2022-08-28T09:37:53.357Z,78.23
2022-08-28T09:39:23.701Z,78.53
2022-08-28T09:41:00.508Z,78.38
2022-08-28T09:42:44.449Z,78.46
2022-08-28T09:43:52.984Z,78.69
2022-08-28T09:45:23.175Z,78.75
2022-08-28T09:46:32.540Z,79.03
2022-08-28T09:47:59.367Z,79.09
2022-08-28T09:49:23.848Z,78.82
2022-08-28T09:50:43.658Z,79.01
2022-08-28T09:51:56.353Z,78.99
2022-08-28T09:53:13.212Z,79.19
2022-08-28T09:54:28.392Z,78.82
2022-08-28T09:56:01.584Z,78.61
2022-08-28T09:57:11.695Z,78.60
2022-08-28T09:58:18.890Z,78.53
2022-08-28T09:59:27.051Z,79.08
2022-08-28T10:00:39.250Z,79.38
2022-08-28T10:01:52.890Z,79.18
2022-08-28T10:03:16.264Z,79.81
2022-08-28T10:05:01.029Z,80.02
2022-08-28T10:06:13.597Z,79.62
2022-08-28T10:07:36.225Z,79.79
2022-08-28T10:09:08.032Z,79.91
2022-08-28T10:10:36.157Z,80.35
2022-08-28T10:12:13.038Z,80.22
2022-08-28T10:13:38.821Z,80.30
2022-08-28T10:14:53.833Z,80.71
2022-08-28T10:16:06.901Z,80.65
2022-08-28T10:18:03.301Z,81.07
2022-08-28T10:19:42.976Z,81.32
2022-08-28T10:20:57.909Z,81.17
2022-08-28T10:22:09.877Z,80.85
2022-08-28T10:23:46.268Z,80.58
2022-08-28T10:25:23.843Z,80.29
2022-08-28T10:26:54.854Z,80.31
2022-08-28T10:28:31.182Z,80.73
2022-08-28T10:30:23.303Z,81.06
2022-08-28T10:31:37.821Z,81.17
2022-08-28T10:33:06.662Z,81.66
2022-08-28T10:34:35.377Z,81.67
2022-08-28T10:35:50.447Z,81.30
2022-08-28T10:37:07.390Z,81.11
2022-08-28T10:39:00.476Z,81.05
2022-08-28T10:40:39.590Z,81.51
2022-08-28T10:41:57.611Z,81.60
2022-08-28T10:43:39.768Z,81.60
2022-08-28T10:45:01.265Z,81.97
2022-08-28T10:46:26.510Z,81.78
2022-08-28T10:47:39.226Z,81.76
2022-08-28T10:49:07.609Z,81.63
2022-08-28T10:50:20.353Z,81.82
2022-08-28T10:51:46.730Z,82.06
2022-08-28T10:53:27.088Z,82.28
2022-08-28T10:54:58.121Z,82.24
2022-08-28T10:56:17.333Z,82.42
2022-08-28T10:57:39.213Z,82.45
2022-08-28T10:58:49.400Z,82.26
2022-08-28T11:00:00.346Z,82.16
2022-08-28T11:01:17.265Z,81.98
2022-08-28T11:02:26.142Z,81.80
2022-08-28T11:03:47.107Z,81.62
2022-08-28T11:04:58.460Z,81.61
2022-08-28T11:06:17.446Z,82.09
2022-08-28T11:07:46.977Z,82.17
2022-08-28T11:08:59.027Z,81.83
2022-08-28T11:10:47.103Z,82.21
2022-08-28T11:12:02.061Z,82.14
2022-08-28T11:13:11.875Z,82.06
2022-08-28T11:14:52.553Z,81.85
2022-08-28T11:16:00.655Z,81.60
2022-08-28T11:17:14.339Z,81.62
2022-08-28T11:18:40.874Z,81.56
2022-08-28T11:20:43.445Z,82.10
2022-08-28T11:21:55.724Z,82.20
2022-08-28T11:23:26.161Z,81.95
2022-08-28T11:24:45.707Z,81.80
2022-08-28T11:25:58.816Z,81.99
2022-08-28T11:27:29.263Z,82.07
2022-08-28T11:28:46.027Z,82.52
2022-08-28T11:30:16.558Z,82.78
2022-08-28T11:31:32.448Z,83.28
2022-08-28T11:32:55.003Z,82.91
2022-08-28T11:34:04.716Z,83.02
2022-08-28T11:35:32.489Z,83.01
2022-08-28T11:36:45.493Z,82.76
2022-08-28T11:37:59.874Z,83.07
2022-08-28T11:39:17.224Z,83.40
2022-08-28T11:40:34.795Z,82.92
2022-08-28T11:42:03.222Z,82.62
2022-08-28T11:43:22.362Z,82.80
2022-08-28T11:44:53.612Z,83.07
2022-08-28T11:46:01.957Z,82.99
2022-08-28T11:47:43.591Z,83.21
2022-08-28T11:48:56.133Z,83.01
2022-08-28T11:50:24.020Z,82.86
2022-08-28T11:51:58.851Z,82.91
2022-08-28T11:53:27.158Z,82.82
2022-08-28T11:54:49.295Z,83.03
2022-08-28T11:56:31.796Z,83.37
2022-08-28T11:59:47.796Z,83.52
2022-08-28T12:01:11.852Z,83.31
2022-08-28T12:02:43.246Z,83.02
2022-08-28T12:04:24.291Z,82.98
2022-08-28T12:05:40.460Z,83.52
2022-08-28T12:07:24.152Z,83.65
2022-08-28T12:08:52.890Z,83.18
2022-08-28T12:10:27.634Z,83.45
2022-08-28T12:11:42.337Z,83.52
2022-08-28T12:12:51.393Z,83.66
2022-08-28T12:14:00.865Z,83.46
2022-08-28T12:15:11.583Z,83.16
2022-08-28T12:16:19.451Z,83.19
2022-08-28T12:17:40.837Z,83.13
2022-08-28T12:18:57.054Z,83.38
2022-08-28T12:20:19.834Z,83.67
2022-08-28T12:21:30.138Z,83.65
2022-08-28T12:23:04.865Z,83.38
2022-08-28T12:24:23.426Z,83.35
2022-08-28T12:25:49.325Z,83.72
2022-08-28T12:26:59.924Z,83.41
2022-08-28T12:28:30.152Z,83.18
2022-08-28T12:29:52.580Z,83.72
2022-08-28T12:31:10.318Z,84.19
2022-08-28T12:33:03.290Z,84.35
2022-08-28T12:34:11.900Z,84.41
2022-08-28T12:35:30.673Z,84.32
2022-08-28T12:36:38.528Z,84.07
2022-08-28T12:37:56.382Z,84.13
2022-08-28T12:39:05.434Z,84.01
2022-08-28T12:40:27.795Z,83.94
2022-08-28T12:41:36.302Z,84.12
2022-08-28T12:42:55.064Z,83.80
2022-08-28T12:44:04.618Z,83.72
2022-08-28T12:45:12.177Z,83.67
2022-08-28T12:46:31.034Z,83.62
2022-08-28T12:47:41.169Z,83.88
2022-08-28T12:49:03.234Z,83.63
2022-08-28T12:50:45.847Z,83.50
2022-08-28T12:52:19.574Z,83.55
2022-08-28T12:53:27.437Z,83.49
2022-08-28T12:54:37.405Z,83.56
2022-08-28T12:55:45.294Z,83.57
2022-08-28T12:56:53.526Z,83.48
2022-08-28T12:58:03.173Z,83.18
2022-08-28T12:59:36.369Z,82.98
2022-08-28T13:00:59.639Z,82.98
2022-08-28T13:02:12.749Z,82.72
2022-08-28T13:03:20.791Z,82.61
2022-08-28T13:04:39.321Z,82.57
2022-08-28T13:05:56.263Z,82.46
2022-08-28T13:07:28.865Z,82.38
2022-08-28T13:08:36.930Z,82.18
2022-08-28T13:09:58.721Z,82.10
2022-08-28T13:11:07.301Z,82.02
2022-08-28T13:12:54.556Z,82.05
2022-08-28T13:14:06.069Z,82.00
2022-08-28T13:15:13.725Z,82.01
2022-08-28T13:16:43.163Z,81.98
2022-08-28T13:17:58.502Z,81.87
2022-08-28T13:19:06.168Z,81.84
2022-08-28T13:20:37.735Z,81.61
2022-08-28T13:22:03.485Z,81.43
2022-08-28T13:23:18.638Z,81.16
2022-08-28T13:24:47.356Z,80.95
2022-08-28T13:26:05.976Z,80.88
2022-08-28T13:27:21.240Z,80.76
2022-08-28T13:28:31.536Z,80.72
2022-08-28T13:29:51.531Z,80.76
2022-08-28T13:31:06.781Z,80.66
2022-08-28T13:32:18.606Z,80.49
2022-08-28T13:33:27.328Z,80.37
2022-08-28T13:34:37.321Z,80.41
2022-08-28T13:35:45.614Z,80.45
2022-08-28T13:37:01.230Z,80.39
2022-08-28T13:38:13.893Z,80.23
2022-08-28T13:39:23.509Z,79.98
2022-08-28T13:40:59.799Z,79.96
2022-08-28T13:42:14.425Z,79.82
2022-08-28T13:43:23.170Z,79.71
2022-08-28T13:44:54.829Z,79.57
2022-08-28T13:46:08.615Z,79.59
2022-08-28T13:47:19.885Z,79.81
2022-08-28T13:48:31.378Z,79.77
2022-08-28T13:49:41.262Z,79.63
2022-08-28T13:50:55.474Z,79.59
2022-08-28T13:52:07.473Z,79.53
2022-08-28T13:53:19.946Z,79.40
2022-08-28T13:54:30.149Z,79.15
2022-08-28T13:55:39.928Z,79.00
2022-08-28T13:56:47.883Z,78.83
2022-08-28T13:57:56.862Z,78.59
2022-08-28T13:59:07.337Z,78.53
2022-08-28T14:00:16.870Z,78.36
2022-08-28T14:01:51.478Z,78.22
2022-08-28T14:03:21.322Z,78.05
2022-08-28T14:04:30.211Z,78.05
2022-08-28T14:05:38.575Z,77.97
2022-08-28T14:06:50.283Z,77.88
2022-08-28T14:08:01.391Z,77.91
2022-08-28T14:09:14.395Z,77.80
2022-08-28T14:10:23.443Z,77.62
2022-08-28T14:11:34.088Z,77.39
2022-08-28T14:12:45.063Z,77.05
2022-08-28T14:13:55.245Z,76.81
2022-08-28T14:15:06.874Z,76.92
2022-08-28T14:16:17.952Z,76.70
2022-08-28T14:17:29.105Z,76.74
2022-08-28T14:18:37.247Z,76.77
2022-08-28T14:19:45.249Z,76.62
2022-08-28T14:20:54.650Z,76.52
2022-08-28T14:22:03.704Z,76.38
2022-08-28T14:23:14.235Z,76.29
2022-08-28T14:24:22.649Z,76.23
2022-08-28T14:25:38.945Z,75.83
2022-08-28T14:26:52.283Z,75.82
2022-08-28T14:28:01.408Z,75.82
2022-08-28T14:29:09.607Z,75.70
2022-08-28T14:30:20.364Z,75.54
2022-08-28T14:31:29.005Z,75.22
2022-08-28T14:32:40.162Z,75.25
2022-08-28T14:33:51.634Z,75.00
2022-08-28T14:35:00.697Z,74.93
2022-08-28T14:36:10.443Z,74.91
2022-08-28T14:37:20.974Z,74.75
2022-08-28T14:38:30.346Z,74.53
2022-08-28T14:39:38.837Z,74.61
2022-08-28T14:40:51.413Z,74.73
2022-08-28T14:42:06.878Z,74.85
2022-08-28T14:43:25.432Z,74.82
2022-08-28T14:44:35.013Z,74.59
2022-08-28T14:45:51.594Z,74.23
2022-08-28T14:47:01.298Z,74.00
2022-08-28T14:48:09.449Z,73.78
2022-08-28T14:49:18.250Z,73.75
2022-08-28T14:50:28.941Z,73.67
2022-08-28T14:51:41.103Z,73.78
2022-08-28T14:52:51.049Z,73.57
2022-08-28T14:54:01.938Z,73.43
2022-08-28T14:55:12.441Z,73.38
2022-08-28T14:56:28.517Z,73.20
2022-08-28T14:57:42.181Z,73.05
2022-08-28T14:58:51.916Z,72.90
2022-08-28T15:00:03.563Z,72.41
2022-08-28T15:01:11.819Z,72.32
2022-08-28T15:02:20.398Z,71.72
2022-08-28T15:03:31.214Z,71.68
2022-08-28T15:04:39.563Z,71.77
2022-08-28T15:05:47.672Z,72.09
2022-08-28T15:07:01.246Z,72.32
2022-08-28T15:08:18.508Z,72.44
2022-08-28T15:09:26.463Z,72.29
2022-08-28T15:10:40.003Z,72.12
2022-08-28T15:11:47.580Z,71.72
2022-08-28T15:12:57.524Z,71.49
2022-08-28T15:14:09.165Z,71.13
2022-08-28T15:15:18.432Z,70.92
2022-08-28T15:16:30.491Z,71.02
2022-08-28T15:17:38.562Z,71.16
2022-08-28T15:18:46.916Z,71.10
2022-08-28T15:19:55.214Z,70.50
2022-08-28T15:21:03.668Z,70.26
2022-08-28T15:22:14.419Z,70.43
2022-08-28T15:23:37.196Z,70.35
2022-08-28T15:24:46.451Z,70.08
2022-08-28T15:25:57.390Z,70.03
2022-08-28T15:27:05.726Z,69.79
2022-08-28T15:28:13.885Z,69.91
2022-08-28T15:29:23.215Z,69.97
2022-08-28T15:30:34.380Z,69.51
2022-08-28T15:31:44.390Z,69.46
2022-08-28T15:32:57.324Z,69.07
2022-08-28T15:34:13.586Z,69.12
2022-08-28T15:35:26.190Z,69.03
2022-08-28T15:36:37.825Z,68.81
2022-08-28T15:37:45.086Z,68.75
2022-08-28T15:39:13.742Z,68.34
2022-08-28T15:40:39.337Z,68.54
2022-08-28T15:41:48.104Z,68.64
2022-08-28T15:42:55.447Z,68.83
2022-08-28T15:44:03.659Z,68.45
2022-08-28T15:45:13.546Z,68.18
2022-08-28T15:46:21.008Z,68.30
2022-08-28T15:47:28.876Z,68.62
2022-08-28T15:48:39.575Z,68.73
2022-08-28T15:49:49.770Z,68.31
2022-08-28T15:50:58.715Z,67.74
2022-08-28T15:52:09.842Z,67.06
2022-08-28T15:53:18.389Z,66.82
2022-08-28T15:54:25.895Z,66.75
2022-08-28T15:55:33.893Z,66.59
2022-08-28T15:56:44.857Z,66.44
2022-08-28T15:57:53.328Z,66.29
2022-08-28T15:59:01.684Z,65.62
2022-08-28T16:00:11.411Z,65.52
2022-08-28T16:01:21.248Z,65.78
2022-08-28T16:02:29.439Z,65.83
2022-08-28T16:03:37.381Z,65.64
2022-08-28T16:04:48.082Z,65.42
2022-08-28T16:05:57.057Z,65.22
2022-08-28T16:07:09.046Z,64.96
2022-08-28T16:08:17.464Z,64.25
2022-08-28T16:09:26.451Z,63.70
2022-08-28T16:10:34.689Z,63.70
2022-08-28T16:11:45.127Z,63.66
2022-08-28T16:12:57.265Z,63.30
2022-08-28T16:14:09.016Z,63.28
2022-08-28T16:15:20.684Z,63.29
2022-08-28T16:16:32.588Z,63.54
2022-08-28T16:17:44.004Z,62.90
2022-08-28T16:18:52.799Z,62.51
2022-08-28T16:20:02.475Z,62.53
2022-08-28T16:21:11.463Z,62.53
2022-08-28T16:22:21.900Z,62.74
2022-08-28T16:23:30.058Z,62.19
2022-08-28T16:24:39.803Z,61.54
2022-08-28T16:25:48.165Z,61.33
2022-08-28T16:26:59.252Z,61.47
2022-08-28T16:28:10.076Z,60.83
2022-08-28T16:29:19.339Z,60.53
2022-08-28T16:30:29.739Z,60.71
2022-08-28T16:31:38.577Z,60.35
2022-08-28T16:32:48.625Z,60.05
2022-08-28T16:33:59.346Z,59.84
2022-08-28T16:35:08.954Z,59.58
2022-08-28T16:36:17.531Z,59.49
2022-08-28T16:37:26.811Z,59.40
2022-08-28T16:39:00.483Z,59.07
2022-08-28T16:40:14.774Z,58.63
2022-08-28T16:41:25.307Z,58.68
2022-08-28T16:42:36.996Z,59.08
2022-08-28T16:43:45.376Z,58.63
2022-08-28T16:44:57.687Z,58.39
2022-08-28T16:46:12.536Z,58.70
2022-08-28T16:47:20.404Z,58.01
2022-08-28T16:48:30.198Z,57.50
2022-08-28T16:49:38.490Z,57.77
2022-08-28T16:50:46.953Z,58.03
2022-08-28T16:51:55.185Z,57.68
2022-08-28T16:53:07.164Z,57.04
2022-08-28T16:54:14.833Z,56.38
2022-08-28T16:55:25.665Z,56.24
2022-08-28T16:56:36.016Z,54.60
2022-08-28T16:57:49.109Z,53.70
2022-08-28T16:59:24.916Z,53.22
2022-08-28T17:00:44.513Z,52.80
2022-08-28T17:02:03.470Z,51.92
2022-08-28T17:03:15.525Z,50.57
2022-08-28T17:04:23.237Z,50.16
2022-08-28T17:05:35.578Z,50.08
2022-08-28T17:06:49.055Z,49.69
2022-08-28T17:07:59.728Z,49.46
2022-08-28T17:09:11.199Z,49.93
2022-08-28T17:10:23.113Z,50.02
2022-08-28T17:11:30.799Z,49.71
2022-08-28T17:12:42.085Z,48.75
2022-08-28T17:13:57.207Z,48.98
2022-08-28T17:15:09.528Z,48.35
2022-08-28T17:16:22.608Z,48.20
2022-08-28T17:17:31.044Z,47.87
2022-08-28T17:18:39.769Z,46.26
2022-08-28T17:19:56.651Z,46.54
2022-08-28T17:21:28.917Z,46.90
2022-08-28T17:22:37.965Z,46.27
2022-08-28T17:23:47.824Z,46.06
2022-08-28T17:24:55.258Z,45.29
2022-08-28T17:26:05.563Z,45.18